Airfield :







YOU CAN JOIN US ON...

 
LOGIN :

Register | Disclaimer

   EN    FR    IT 

 









Legend :    VFR   Marginal VFR   IFR   Intensive IFR   Very Intensive IFR
Visi :
Ceiling :
>= 8 km
>= 3000ft
5 to 8 km
1000 to 3000 ft
1500m to 5 km
500 to 1000 ft
800 to 1500m
200 to 500 ft
< 800m
< 200 ft
Symbols :   Thunderstorms  Fog  Heavy snow  Heavy precipitations  Wind > 20 kt







- Airport Elevation : 244 ft
- IATA code : YQB


CYQB - Quebec - Jean Lesage Int.

CURRENT METAR :
  • 251200Z 05004KT 30SM FEW240 13/08 A3042 RMK CI1 CI TR SLP303

EXPIRED METARs :
  • 251100Z 02005KT 30SM FEW240 11/07 A3040 RMK CI1 CI TR CONTRAILS SLP299

TAF TAF CYQB
Valid from the 25 at 12:00 until the 26 at 12:00 UTC


251138Z 2512/2612 03005KT P6SM FEW240
FM251400 09006KT P6SM SKC
BECMG 2522/2524 02006KT RMK NXT FCST BY 251800Z
ATIS : ENG : +1 418-871-6893 FRA : +1 418-871-6895
No reported NOTAMs for that airfield.



MET'MAP, your aeronautical weather chart ! - Copyright ORBIFLY December 2007 - Disclaimer

ORBIFLY MET'MAP TEAM :

Programming & Development : Alexandra Zaïnal
Concept & Development : Baudouin d'Aumeries
Co-Development & Prog : Marc-Olivier Méhu
Technical & hardware support : Manuel Goepfert

Contact : metmap@orbifly.com




SOURCES & CREDITS :

   NOAA